If you wish to contribute or participate in the discussions about articles you are invited to join SKYbrary as a registered user

 Actions

Albury Airport

From SKYbrary Wiki

YMAY
Airport
ICAO: YMAY – IATA: ABX
Summary
Name Albury Airport
Region Asia and Pacific
Territory Australia AU.gif
Location , New South Wales
Serving Albury
Elevation 164.287 m
539 ft
539 ft164.287 m
Type medium airport
Coordinates 36° 4' 4.01" S, 146° 57' 29.02" E
Runways
Designator Length Width Surface ROPS
7/25 1900 m6,233.596 ft
30 m98.425 ft
ASP /


METAR
Observation YMAY 040000Z AUTO 24005KT 9999 // SCT010 06/05 Q1025
Station Albury Airport
Date/Time 04 July 2020 00:00:00
Wind direction 240°
Wind speed 05 kts
Lowest cloud amount scattered clouds
Temperature 6°C
Dew point 5°C
Humidity 93%
QNH 1025 hPa
Weather condition n/a